Terminal Aerodrome Forecast
Issued by NWS

Home | Current Version | Previous Version | Text Only | Print | Product List | Glossary On
Versions: 1 2 3 4 5 6 7 8 9 10 11 12 13
000
FTUS43 KAPX 060532
TAFTVC
TAF
KTVC 060532Z 0606/0706 VRB03KT P6SM SKC
     FM061400 19009KT P6SM FEW250
     FM070000 21004KT P6SM OVC150
     FM070300 22004KT 4SM SHRA OVC030=

USA.gov is the U.S. government's official web portal to all federal, state and local government web resources and services.